Fairmont, California
Current Conditions -  °F | °C
As of 12:48 PM on Friday 19 Dec 2014 (Local Time) from KSDB Reporting Station
Clear Clear  
Wind Chill: 50°   Ceiling: Unl
Heat Index: 50°   Visibility: 10mi
Dew Point: 36°   Wind: 9mph
Humidity: 59%   Direction: 200°SSW
Pressure: 30.2"   Gusts: NA
Location:  34.8604°N, 118.583°W
Report Text: KSDB 192048Z AUTO 20008KT 10SM CLR 10/02 A3020 RMK AO2 SLP207 T01000022 58013
Loading
Personal Weather Stations






























Interactive Weather Map New forecast layout! Learn more

10-Day Weather Forecast

Advertisements
Track Severe Weather on mobile